sensor_id;sensor_type;location;lat;lon;timestamp;pressure;altitude;pressure_sealevel;temperature;humidity
18533;BME280;9396;51.510;11.934;2022-11-15T00:00:27;100355.81;;;7.49;100.00
18533;BME280;9396;51.510;11.934;2022-11-15T00:02:54;100360.72;;;7.54;100.00
18533;BME280;9396;51.510;11.934;2022-11-15T00:05:20;100349.97;;;7.55;100.00
18533;BME280;9396;51.510;11.934;2022-11-15T00:07:47;100358.63;;;7.57;99.82
18533;BME280;9396;51.510;11.934;2022-11-15T00:10:14;100356.41;;;7.63;100.00
18533;BME280;9396;51.510;11.934;2022-11-15T00:12:42;100343.88;;;7.65;100.00
18533;BME280;9396;51.510;11.934;2022-11-15T00:15:09;100337.72;;;7.64;100.00
18533;BME280;9396;51.510;11.934;2022-11-15T00:17:35;100336.78;;;7.65;99.85
18533;BME280;9396;51.510;11.934;2022-11-15T00:20:03;100337.59;;;7.66;99.72
18533;BME280;9396;51.510;11.934;2022-11-15T00:22:31;100336.22;;;7.71;100.00
18533;BME280;9396;51.510;11.934;2022-11-15T00:24:58;100335.25;;;7.72;100.00
18533;BME280;9396;51.510;11.934;2022-11-15T00:27:24;100345.66;;;7.64;99.90
18533;BME280;9396;51.510;11.934;2022-11-15T00:29:52;100351.53;;;7.68;100.00
18533;BME280;9396;51.510;11.934;2022-11-15T00:32:19;100354.19;;;7.68;100.00
18533;BME280;9396;51.510;11.934;2022-11-15T00:34:45;100355.88;;;7.69;99.84
18533;BME280;9396;51.510;11.934;2022-11-15T00:37:12;100354.75;;;7.62;100.00
18533;BME280;9396;51.510;11.934;2022-11-15T00:39:39;100351.41;;;7.59;100.00
18533;BME280;9396;51.510;11.934;2022-11-15T00:42:05;100347.19;;;7.57;99.50
18533;BME280;9396;51.510;11.934;2022-11-15T00:44:32;100341.91;;;7.57;99.73
18533;BME280;9396;51.510;11.934;2022-11-15T00:47:00;100345.69;;;7.54;99.06
18533;BME280;9396;51.510;11.934;2022-11-15T00:49:26;100338.13;;;7.50;99.76
18533;BME280;9396;51.510;11.934;2022-11-15T00:51:53;100341.06;;;7.47;98.65
18533;BME280;9396;51.510;11.934;2022-11-15T00:54:20;100336.16;;;7.42;99.42
18533;BME280;9396;51.510;11.934;2022-11-15T00:56:46;100334.78;;;7.38;99.15
18533;BME280;9396;51.510;11.934;2022-11-15T00:59:13;100337.22;;;7.30;99.63
18533;BME280;9396;51.510;11.934;2022-11-15T01:01:39;100340.44;;;7.34;100.00
18533;BME280;9396;51.510;11.934;2022-11-15T01:04:07;100340.16;;;7.37;100.00
18533;BME280;9396;51.510;11.934;2022-11-15T01:06:34;100329.47;;;7.38;99.93
18533;BME280;9396;51.510;11.934;2022-11-15T01:09:01;100331.00;;;7.41;100.00
18533;BME280;9396;51.510;11.934;2022-11-15T01:11:27;100330.75;;;7.44;100.00
18533;BME280;9396;51.510;11.934;2022-11-15T01:13:54;100327.13;;;7.45;100.00
18533;BME280;9396;51.510;11.934;2022-11-15T01:16:21;100320.16;;;7.44;100.00
18533;BME280;9396;51.510;11.934;2022-11-15T01:18:48;100319.19;;;7.45;100.00
18533;BME280;9396;51.510;11.934;2022-11-15T01:21:17;100319.88;;;7.47;100.00
18533;BME280;9396;51.510;11.934;2022-11-15T01:23:44;100314.88;;;7.53;100.00
18533;BME280;9396;51.510;11.934;2022-11-15T01:26:13;100314.34;;;7.59;100.00
18533;BME280;9396;51.510;11.934;2022-11-15T01:28:41;100321.16;;;7.62;100.00
18533;BME280;9396;51.510;11.934;2022-11-15T01:31:11;100316.00;;;7.51;100.00
18533;BME280;9396;51.510;11.934;2022-11-15T01:33:39;100312.09;;;7.55;100.00
18533;BME280;9396;51.510;11.934;2022-11-15T01:36:07;100314.72;;;7.55;100.00
18533;BME280;9396;51.510;11.934;2022-11-15T01:38:35;100319.06;;;7.56;100.00
18533;BME280;9396;51.510;11.934;2022-11-15T01:41:03;100310.56;;;7.52;100.00
18533;BME280;9396;51.510;11.934;2022-11-15T01:43:31;100310.00;;;7.49;100.00
18533;BME280;9396;51.510;11.934;2022-11-15T01:46:01;100318.19;;;7.36;100.00
18533;BME280;9396;51.510;11.934;2022-11-15T01:48:32;100312.47;;;7.41;100.00
18533;BME280;9396;51.510;11.934;2022-11-15T01:51:01;100312.06;;;7.36;100.00
18533;BME280;9396;51.510;11.934;2022-11-15T01:53:29;100307.66;;;7.16;100.00
18533;BME280;9396;51.510;11.934;2022-11-15T01:56:01;100298.91;;;7.15;100.00
18533;BME280;9396;51.510;11.934;2022-11-15T01:58:28;100295.84;;;7.20;100.00
18533;BME280;9396;51.510;11.934;2022-11-15T02:00:55;100290.28;;;7.13;100.00
18533;BME280;9396;51.510;11.934;2022-11-15T02:03:26;100290.41;;;7.12;100.00
18533;BME280;9396;51.510;11.934;2022-11-15T02:05:55;100295.16;;;7.18;100.00
18533;BME280;9396;51.510;11.934;2022-11-15T02:08:22;100287.22;;;7.08;100.00
18533;BME280;9396;51.510;11.934;2022-11-15T02:10:49;100282.59;;;7.01;100.00
18533;BME280;9396;51.510;11.934;2022-11-15T02:13:17;100289.94;;;6.97;100.00
18533;BME280;9396;51.510;11.934;2022-11-15T02:15:52;100283.94;;;6.95;100.00
18533;BME280;9396;51.510;11.934;2022-11-15T02:18:26;100280.75;;;6.92;100.00
18533;BME280;9396;51.510;11.934;2022-11-15T02:21:01;100279.03;;;6.91;100.00
18533;BME280;9396;51.510;11.934;2022-11-15T02:27:16;100279.75;;;6.83;100.00
18533;BME280;9396;51.510;11.934;2022-11-15T02:32:47;100271.03;;;7.02;100.00
18533;BME280;9396;51.510;11.934;2022-11-15T02:35:20;100271.03;;;7.02;100.00
18533;BME280;9396;51.510;11.934;2022-11-15T02:37:55;100263.94;;;7.02;100.00
18533;BME280;9396;51.510;11.934;2022-11-15T02:40:28;100265.03;;;7.00;100.00
18533;BME280;9396;51.510;11.934;2022-11-15T02:43:01;100263.50;;;6.97;100.00
18533;BME280;9396;51.510;11.934;2022-11-15T02:45:51;100259.16;;;6.87;100.00
18533;BME280;9396;51.510;11.934;2022-11-15T02:48:22;100253.03;;;6.86;100.00
18533;BME280;9396;51.510;11.934;2022-11-15T02:50:51;100255.47;;;6.78;100.00
18533;BME280;9396;51.510;11.934;2022-11-15T02:53:20;100254.47;;;6.60;100.00
18533;BME280;9396;51.510;11.934;2022-11-15T02:55:51;100253.41;;;6.51;100.00
18533;BME280;9396;51.510;11.934;2022-11-15T02:58:32;100244.81;;;6.49;100.00
18533;BME280;9396;51.510;11.934;2022-11-15T03:01:06;100240.03;;;6.43;100.00
18533;BME280;9396;51.510;11.934;2022-11-15T03:03:51;100247.69;;;6.46;100.00
18533;BME280;9396;51.510;11.934;2022-11-15T03:06:29;100248.03;;;6.53;100.00
18533;BME280;9396;51.510;11.934;2022-11-15T03:09:09;100237.75;;;6.60;100.00
18533;BME280;9396;51.510;11.934;2022-11-15T03:11:41;100243.31;;;6.57;100.00
18533;BME280;9396;51.510;11.934;2022-11-15T03:14:19;100241.97;;;6.72;100.00
18533;BME280;9396;51.510;11.934;2022-11-15T03:16:50;100236.88;;;6.80;100.00
18533;BME280;9396;51.510;11.934;2022-11-15T03:19:26;100244.38;;;6.84;100.00
18533;BME280;9396;51.510;11.934;2022-11-15T03:21:58;100237.41;;;6.74;100.00
18533;BME280;9396;51.510;11.934;2022-11-15T03:24:28;100252.53;;;6.62;100.00
18533;BME280;9396;51.510;11.934;2022-11-15T03:26:59;100242.63;;;6.64;100.00
18533;BME280;9396;51.510;11.934;2022-11-15T03:29:31;100246.81;;;6.67;100.00
18533;BME280;9396;51.510;11.934;2022-11-15T03:32:03;100250.44;;;6.66;100.00
18533;BME280;9396;51.510;11.934;2022-11-15T03:34:36;100239.97;;;6.64;100.00
18533;BME280;9396;51.510;11.934;2022-11-15T03:37:05;100250.59;;;6.74;100.00
18533;BME280;9396;51.510;11.934;2022-11-15T03:39:32;100252.69;;;6.70;100.00
18533;BME280;9396;51.510;11.934;2022-11-15T03:42:08;100250.88;;;6.71;100.00
18533;BME280;9396;51.510;11.934;2022-11-15T03:44:43;100253.97;;;6.76;100.00
18533;BME280;9396;51.510;11.934;2022-11-15T03:47:17;100250.56;;;6.64;100.00
18533;BME280;9396;51.510;11.934;2022-11-15T03:49:51;100254.19;;;6.63;100.00
18533;BME280;9396;51.510;11.934;2022-11-15T03:52:19;100249.47;;;6.67;100.00
18533;BME280;9396;51.510;11.934;2022-11-15T03:54:49;100240.53;;;6.58;100.00
18533;BME280;9396;51.510;11.934;2022-11-15T03:57:16;100236.47;;;6.54;100.00
18533;BME280;9396;51.510;11.934;2022-11-15T03:59:42;100240.13;;;6.63;100.00
18533;BME280;9396;51.510;11.934;2022-11-15T04:02:09;100234.25;;;6.49;100.00
18533;BME280;9396;51.510;11.934;2022-11-15T04:04:36;100232.63;;;6.58;100.00
18533;BME280;9396;51.510;11.934;2022-11-15T04:07:04;100249.81;;;6.53;100.00
18533;BME280;9396;51.510;11.934;2022-11-15T04:09:30;100238.75;;;6.38;100.00
18533;BME280;9396;51.510;11.934;2022-11-15T04:11:57;100240.53;;;6.28;100.00
18533;BME280;9396;51.510;11.934;2022-11-15T04:14:24;100234.25;;;6.29;100.00
18533;BME280;9396;51.510;11.934;2022-11-15T04:16:50;100239.34;;;6.41;100.00
18533;BME280;9396;51.510;11.934;2022-11-15T04:19:17;100242.56;;;6.45;100.00
18533;BME280;9396;51.510;11.934;2022-11-15T04:22:01;100239.13;;;6.54;100.00
18533;BME280;9396;51.510;11.934;2022-11-15T04:24:46;100243.03;;;6.60;100.00
18533;BME280;9396;51.510;11.934;2022-11-15T04:27:13;100253.34;;;6.63;100.00
18533;BME280;9396;51.510;11.934;2022-11-15T04:29:39;100242.06;;;6.61;100.00
18533;BME280;9396;51.510;11.934;2022-11-15T04:32:06;100241.38;;;6.59;100.00
18533;BME280;9396;51.510;11.934;2022-11-15T04:34:33;100235.75;;;6.42;100.00
18533;BME280;9396;51.510;11.934;2022-11-15T04:37:00;100241.84;;;6.43;99.97
18533;BME280;9396;51.510;11.934;2022-11-15T04:39:38;100247.41;;;6.40;100.00
18533;BME280;9396;51.510;11.934;2022-11-15T04:42:07;100239.34;;;6.41;100.00
18533;BME280;9396;51.510;11.934;2022-11-15T04:44:34;100239.94;;;6.24;100.00
18533;BME280;9396;51.510;11.934;2022-11-15T04:47:01;100238.19;;;6.34;100.00
18533;BME280;9396;51.510;11.934;2022-11-15T04:49:27;100234.06;;;6.41;100.00
18533;BME280;9396;51.510;11.934;2022-11-15T04:51:54;100242.81;;;6.42;100.00
18533;BME280;9396;51.510;11.934;2022-11-15T04:54:21;100236.97;;;6.38;100.00
18533;BME280;9396;51.510;11.934;2022-11-15T04:56:47;100216.69;;;6.18;100.00
18533;BME280;9396;51.510;11.934;2022-11-15T04:59:15;100232.16;;;6.23;100.00
18533;BME280;9396;51.510;11.934;2022-11-15T05:01:42;100234.41;;;6.27;100.00
18533;BME280;9396;51.510;11.934;2022-11-15T05:04:08;100226.19;;;6.30;100.00
18533;BME280;9396;51.510;11.934;2022-11-15T05:06:48;100227.63;;;6.34;100.00
18533;BME280;9396;51.510;11.934;2022-11-15T05:09:15;100220.22;;;6.28;100.00
18533;BME280;9396;51.510;11.934;2022-11-15T05:11:42;100222.91;;;6.38;100.00
18533;BME280;9396;51.510;11.934;2022-11-15T05:14:08;100221.81;;;6.40;100.00
18533;BME280;9396;51.510;11.934;2022-11-15T05:16:36;100226.25;;;6.40;100.00
18533;BME280;9396;51.510;11.934;2022-11-15T05:19:03;100221.13;;;6.38;100.00
18533;BME280;9396;51.510;11.934;2022-11-15T05:21:30;100226.78;;;6.34;99.52
18533;BME280;9396;51.510;11.934;2022-11-15T05:23:57;100224.81;;;6.26;98.77
18533;BME280;9396;51.510;11.934;2022-11-15T05:26:24;100224.75;;;6.17;98.80
18533;BME280;9396;51.510;11.934;2022-11-15T05:28:54;100220.56;;;6.14;98.79
18533;BME280;9396;51.510;11.934;2022-11-15T05:31:21;100225.84;;;6.14;98.35
18533;BME280;9396;51.510;11.934;2022-11-15T05:33:50;100218.97;;;6.02;98.53
18533;BME280;9396;51.510;11.934;2022-11-15T05:36:21;100216.06;;;6.05;99.66
18533;BME280;9396;51.510;11.934;2022-11-15T05:38:51;100213.03;;;6.10;99.98
18533;BME280;9396;51.510;11.934;2022-11-15T05:41:21;100214.31;;;6.15;100.00
18533;BME280;9396;51.510;11.934;2022-11-15T05:43:48;100186.91;;;6.07;100.00
18533;BME280;9396;51.510;11.934;2022-11-15T05:46:17;100211.84;;;6.23;100.00
18533;BME280;9396;51.510;11.934;2022-11-15T05:48:46;100209.41;;;6.31;100.00
18533;BME280;9396;51.510;11.934;2022-11-15T05:51:15;100211.50;;;6.37;100.00
18533;BME280;9396;51.510;11.934;2022-11-15T05:53:43;100204.84;;;6.43;100.00
18533;BME280;9396;51.510;11.934;2022-11-15T05:56:10;100204.47;;;6.47;100.00
18533;BME280;9396;51.510;11.934;2022-11-15T05:58:38;100202.53;;;6.49;100.00
18533;BME280;9396;51.510;11.934;2022-11-15T06:01:05;100203.34;;;6.50;100.00
18533;BME280;9396;51.510;11.934;2022-11-15T06:03:31;100205.03;;;6.51;100.00
18533;BME280;9396;51.510;11.934;2022-11-15T06:05:58;100208.06;;;6.46;100.00
18533;BME280;9396;51.510;11.934;2022-11-15T06:08:26;100202.50;;;6.40;100.00
18533;BME280;9396;51.510;11.934;2022-11-15T06:10:53;100203.47;;;6.39;99.93
18533;BME280;9396;51.510;11.934;2022-11-15T06:13:20;100202.88;;;6.35;99.80
18533;BME280;9396;51.510;11.934;2022-11-15T06:15:46;100197.50;;;6.16;99.52
18533;BME280;9396;51.510;11.934;2022-11-15T06:18:13;100211.81;;;6.14;100.00
18533;BME280;9396;51.510;11.934;2022-11-15T06:20:40;100205.28;;;6.18;100.00
18533;BME280;9396;51.510;11.934;2022-11-15T06:23:06;100212.84;;;6.22;100.00
18533;BME280;9396;51.510;11.934;2022-11-15T06:25:34;100216.19;;;6.24;100.00
18533;BME280;9396;51.510;11.934;2022-11-15T06:28:01;100217.97;;;6.24;100.00
18533;BME280;9396;51.510;11.934;2022-11-15T06:30:27;100221.69;;;6.21;100.00
18533;BME280;9396;51.510;11.934;2022-11-15T06:32:59;100220.25;;;6.08;100.00
18533;BME280;9396;51.510;11.934;2022-11-15T06:35:26;100220.44;;;5.95;100.00
18533;BME280;9396;51.510;11.934;2022-11-15T06:37:53;100225.44;;;5.98;100.00
18533;BME280;9396;51.510;11.934;2022-11-15T06:40:20;100226.88;;;6.02;100.00
18533;BME280;9396;51.510;11.934;2022-11-15T06:42:48;100220.38;;;6.06;100.00
18533;BME280;9396;51.510;11.934;2022-11-15T06:45:14;100233.88;;;6.13;100.00
18533;BME280;9396;51.510;11.934;2022-11-15T06:47:44;100231.81;;;6.16;100.00
18533;BME280;9396;51.510;11.934;2022-11-15T06:50:11;100229.59;;;6.12;100.00
18533;BME280;9396;51.510;11.934;2022-11-15T06:52:37;100235.19;;;6.18;100.00
18533;BME280;9396;51.510;11.934;2022-11-15T06:55:05;100236.91;;;6.29;100.00
18533;BME280;9396;51.510;11.934;2022-11-15T06:57:32;100243.78;;;6.41;100.00
18533;BME280;9396;51.510;11.934;2022-11-15T07:00:00;100227.97;;;6.50;100.00
18533;BME280;9396;51.510;11.934;2022-11-15T07:02:27;100230.53;;;6.62;100.00
18533;BME280;9396;51.510;11.934;2022-11-15T07:04:53;100241.13;;;6.71;100.00
18533;BME280;9396;51.510;11.934;2022-11-15T07:07:20;100237.13;;;6.77;100.00
18533;BME280;9396;51.510;11.934;2022-11-15T07:09:47;100233.81;;;6.84;100.00
18533;BME280;9396;51.510;11.934;2022-11-15T07:12:13;100236.63;;;6.92;100.00
18533;BME280;9396;51.510;11.934;2022-11-15T07:14:40;100236.06;;;6.98;100.00
18533;BME280;9396;51.510;11.934;2022-11-15T07:17:08;100235.69;;;7.03;100.00
18533;BME280;9396;51.510;11.934;2022-11-15T07:19:34;100238.75;;;7.08;100.00
18533;BME280;9396;51.510;11.934;2022-11-15T07:22:01;100238.47;;;7.11;100.00
18533;BME280;9396;51.510;11.934;2022-11-15T07:24:27;100234.31;;;7.08;100.00
18533;BME280;9396;51.510;11.934;2022-11-15T07:26:54;100231.94;;;7.15;100.00
18533;BME280;9396;51.510;11.934;2022-11-15T07:29:21;100232.50;;;7.18;100.00
18533;BME280;9396;51.510;11.934;2022-11-15T07:31:47;100235.44;;;7.25;100.00
18533;BME280;9396;51.510;11.934;2022-11-15T07:34:17;100229.63;;;7.31;100.00
18533;BME280;9396;51.510;11.934;2022-11-15T07:36:43;100231.69;;;7.37;100.00
18533;BME280;9396;51.510;11.934;2022-11-15T07:39:10;100239.38;;;7.40;100.00
18533;BME280;9396;51.510;11.934;2022-11-15T07:41:37;100240.06;;;7.42;100.00
18533;BME280;9396;51.510;11.934;2022-11-15T07:44:05;100254.97;;;7.43;100.00
18533;BME280;9396;51.510;11.934;2022-11-15T07:46:31;100247.72;;;7.45;100.00
18533;BME280;9396;51.510;11.934;2022-11-15T07:48:58;100239.91;;;7.34;100.00
18533;BME280;9396;51.510;11.934;2022-11-15T07:51:26;100245.34;;;7.32;100.00
18533;BME280;9396;51.510;11.934;2022-11-15T07:53:53;100246.06;;;7.44;100.00
18533;BME280;9396;51.510;11.934;2022-11-15T07:56:19;100242.44;;;7.45;100.00
18533;BME280;9396;51.510;11.934;2022-11-15T07:58:46;100236.72;;;7.59;100.00
18533;BME280;9396;51.510;11.934;2022-11-15T08:01:13;100230.59;;;7.68;100.00
18533;BME280;9396;51.510;11.934;2022-11-15T08:03:39;100226.56;;;7.74;100.00
18533;BME280;9396;51.510;11.934;2022-11-15T08:06:06;100218.63;;;7.74;100.00
18533;BME280;9396;51.510;11.934;2022-11-15T08:08:34;100225.88;;;7.81;100.00
18533;BME280;9396;51.510;11.934;2022-11-15T08:11:01;100223.50;;;7.88;100.00
18533;BME280;9396;51.510;11.934;2022-11-15T08:13:27;100231.00;;;7.92;100.00
18533;BME280;9396;51.510;11.934;2022-11-15T08:15:57;100224.03;;;7.91;100.00
18533;BME280;9396;51.510;11.934;2022-11-15T08:18:24;100220.84;;;7.88;100.00
18533;BME280;9396;51.510;11.934;2022-11-15T08:20:51;100213.00;;;7.96;100.00
18533;BME280;9396;51.510;11.934;2022-11-15T08:23:17;100214.25;;;8.01;100.00
18533;BME280;9396;51.510;11.934;2022-11-15T08:25:46;100219.41;;;8.12;100.00
18533;BME280;9396;51.510;11.934;2022-11-15T08:28:13;100217.44;;;8.14;100.00
18533;BME280;9396;51.510;11.934;2022-11-15T08:30:42;100219.41;;;8.12;100.00
18533;BME280;9396;51.510;11.934;2022-11-15T08:33:12;100215.91;;;8.21;100.00
18533;BME280;9396;51.510;11.934;2022-11-15T08:35:39;100206.44;;;8.28;100.00
18533;BME280;9396;51.510;11.934;2022-11-15T08:38:06;100205.88;;;8.34;100.00
18533;BME280;9396;51.510;11.934;2022-11-15T08:40:32;100213.66;;;8.45;100.00
18533;BME280;9396;51.510;11.934;2022-11-15T08:43:00;100204.13;;;8.52;100.00
18533;BME280;9396;51.510;11.934;2022-11-15T08:45:27;100201.41;;;8.62;100.00
18533;BME280;9396;51.510;11.934;2022-11-15T08:47:54;100208.81;;;8.58;100.00
18533;BME280;9396;51.510;11.934;2022-11-15T08:50:21;100201.25;;;8.63;100.00
18533;BME280;9396;51.510;11.934;2022-11-15T08:52:48;100203.72;;;8.75;100.00
18533;BME280;9396;51.510;11.934;2022-11-15T08:55:14;100207.78;;;8.79;100.00
18533;BME280;9396;51.510;11.934;2022-11-15T08:57:41;100198.03;;;8.70;100.00
18533;BME280;9396;51.510;11.934;2022-11-15T09:00:10;100191.41;;;8.83;100.00
18533;BME280;9396;51.510;11.934;2022-11-15T09:02:37;100198.19;;;8.95;100.00
18533;BME280;9396;51.510;11.934;2022-11-15T09:05:05;100189.56;;;8.93;100.00
18533;BME280;9396;51.510;11.934;2022-11-15T09:07:32;100193.50;;;9.07;100.00
18533;BME280;9396;51.510;11.934;2022-11-15T09:09:58;100190.94;;;9.15;100.00
18533;BME280;9396;51.510;11.934;2022-11-15T09:12:25;100193.53;;;9.24;100.00
18533;BME280;9396;51.510;11.934;2022-11-15T09:14:52;100197.25;;;9.31;100.00
18533;BME280;9396;51.510;11.934;2022-11-15T09:17:20;100186.34;;;9.34;100.00
18533;BME280;9396;51.510;11.934;2022-11-15T09:19:46;100190.19;;;9.40;100.00
18533;BME280;9396;51.510;11.934;2022-11-15T09:22:13;100189.44;;;9.47;100.00
18533;BME280;9396;51.510;11.934;2022-11-15T09:24:40;100187.03;;;9.54;100.00
18533;BME280;9396;51.510;11.934;2022-11-15T09:27:06;100186.63;;;9.49;100.00
18533;BME280;9396;51.510;11.934;2022-11-15T09:29:33;100179.44;;;9.59;100.00
18533;BME280;9396;51.510;11.934;2022-11-15T09:32:00;100181.84;;;9.70;100.00
18533;BME280;9396;51.510;11.934;2022-11-15T09:34:28;100170.91;;;9.73;99.78
18533;BME280;9396;51.510;11.934;2022-11-15T09:36:54;100172.28;;;9.77;99.55
18533;BME280;9396;51.510;11.934;2022-11-15T09:39:21;100171.03;;;9.89;99.26
18533;BME280;9396;51.510;11.934;2022-11-15T09:41:58;100168.38;;;9.89;99.22
18533;BME280;9396;51.510;11.934;2022-11-15T09:44:42;100167.22;;;9.92;98.74
18533;BME280;9396;51.510;11.934;2022-11-15T09:47:32;100166.44;;;9.99;98.60
18533;BME280;9396;51.510;11.934;2022-11-15T09:50:10;100164.94;;;10.14;98.33
18533;BME280;9396;51.510;11.934;2022-11-15T09:52:39;100168.91;;;10.18;98.04
18533;BME280;9396;51.510;11.934;2022-11-15T09:55:08;100099.47;;;9.88;97.87
18533;BME280;9396;51.510;11.934;2022-11-15T09:57:41;100153.66;;;10.20;98.05
18533;BME280;9396;51.510;11.934;2022-11-15T10:00:16;100160.69;;;10.29;97.53
18533;BME280;9396;51.510;11.934;2022-11-15T10:02:56;100160.53;;;10.31;96.97
18533;BME280;9396;51.510;11.934;2022-11-15T10:05:26;100147.75;;;10.34;96.34
18533;BME280;9396;51.510;11.934;2022-11-15T10:08:00;100153.38;;;10.31;97.58
18533;BME280;9396;51.510;11.934;2022-11-15T10:10:36;100148.47;;;10.44;96.75
18533;BME280;9396;51.510;11.934;2022-11-15T10:13:04;100145.16;;;10.50;96.22
18533;BME280;9396;51.510;11.934;2022-11-15T10:15:31;100126.38;;;10.44;96.34
18533;BME280;9396;51.510;11.934;2022-11-15T10:18:07;100137.06;;;10.60;95.71
18533;BME280;9396;51.510;11.934;2022-11-15T10:20:44;100129.78;;;10.70;95.81
18533;BME280;9396;51.510;11.934;2022-11-15T10:23:14;100107.69;;;10.69;96.07
18533;BME280;9396;51.510;11.934;2022-11-15T10:25:42;100102.38;;;10.69;95.51
18533;BME280;9396;51.510;11.934;2022-11-15T10:28:13;100119.88;;;10.80;94.88
18533;BME280;9396;51.510;11.934;2022-11-15T10:30:42;100121.00;;;10.77;93.13
18533;BME280;9396;51.510;11.934;2022-11-15T10:33:13;100118.69;;;10.82;93.30
18533;BME280;9396;51.510;11.934;2022-11-15T10:35:45;100116.69;;;10.85;93.42
18533;BME280;9396;51.510;11.934;2022-11-15T10:38:12;100106.72;;;10.87;93.47
18533;BME280;9396;51.510;11.934;2022-11-15T10:40:40;100114.38;;;10.90;92.59
18533;BME280;9396;51.510;11.934;2022-11-15T10:43:16;100112.09;;;10.95;92.66
18533;BME280;9396;51.510;11.934;2022-11-15T10:45:43;100106.44;;;10.98;92.26
18533;BME280;9396;51.510;11.934;2022-11-15T10:48:21;100101.78;;;11.08;92.19
18533;BME280;9396;51.510;11.934;2022-11-15T10:50:51;100099.44;;;11.05;91.89
18533;BME280;9396;51.510;11.934;2022-11-15T10:53:23;100098.44;;;11.06;92.35
18533;BME280;9396;51.510;11.934;2022-11-15T10:55:53;100096.13;;;11.11;91.40
18533;BME280;9396;51.510;11.934;2022-11-15T10:58:30;100094.78;;;11.15;91.47
18533;BME280;9396;51.510;11.934;2022-11-15T11:01:09;100081.00;;;11.19;91.33
18533;BME280;9396;51.510;11.934;2022-11-15T11:03:38;100076.84;;;11.25;91.29
18533;BME280;9396;51.510;11.934;2022-11-15T11:06:09;100072.03;;;11.28;90.87
18533;BME280;9396;51.510;11.934;2022-11-15T11:08:36;100068.53;;;11.28;91.68
18533;BME280;9396;51.510;11.934;2022-11-15T11:11:04;100067.34;;;11.30;91.38
18533;BME280;9396;51.510;11.934;2022-11-15T11:13:33;100060.84;;;11.33;91.47
18533;BME280;9396;51.510;11.934;2022-11-15T11:16:15;100059.72;;;11.35;91.35
18533;BME280;9396;51.510;11.934;2022-11-15T11:18:49;100066.34;;;11.39;91.26
18533;BME280;9396;51.510;11.934;2022-11-15T11:21:25;100055.69;;;11.39;91.50
18533;BME280;9396;51.510;11.934;2022-11-15T11:23:57;100061.84;;;11.40;90.96
18533;BME280;9396;51.510;11.934;2022-11-15T11:26:39;100057.19;;;11.42;90.87
18533;BME280;9396;51.510;11.934;2022-11-15T11:29:17;100059.00;;;11.41;90.84
18533;BME280;9396;51.510;11.934;2022-11-15T11:31:52;100054.88;;;11.39;89.81
18533;BME280;9396;51.510;11.934;2022-11-15T11:34:34;100055.03;;;11.45;90.16
18533;BME280;9396;51.510;11.934;2022-11-15T11:37:11;100045.03;;;11.55;89.92
18533;BME280;9396;51.510;11.934;2022-11-15T11:39:46;100053.00;;;11.55;89.82
18533;BME280;9396;51.510;11.934;2022-11-15T11:42:19;100051.50;;;11.61;90.11
18533;BME280;9396;51.510;11.934;2022-11-15T11:44:55;100045.38;;;11.60;89.86
18533;BME280;9396;51.510;11.934;2022-11-15T11:47:29;100047.53;;;11.65;90.18
18533;BME280;9396;51.510;11.934;2022-11-15T11:50:00;100036.03;;;11.72;89.62
18533;BME280;9396;51.510;11.934;2022-11-15T11:52:33;100037.03;;;11.79;89.49
18533;BME280;9396;51.510;11.934;2022-11-15T11:55:05;100033.84;;;11.84;89.84
18533;BME280;9396;51.510;11.934;2022-11-15T11:57:41;100037.66;;;11.90;89.75
18533;BME280;9396;51.510;11.934;2022-11-15T12:00:16;100026.16;;;11.89;89.67
18533;BME280;9396;51.510;11.934;2022-11-15T12:02:48;100027.47;;;11.93;89.81
18533;BME280;9396;51.510;11.934;2022-11-15T12:05:21;100010.16;;;11.97;89.77
18533;BME280;9396;51.510;11.934;2022-11-15T12:07:51;100013.47;;;11.99;89.41
18533;BME280;9396;51.510;11.934;2022-11-15T12:10:23;100012.13;;;12.03;90.03
18533;BME280;9396;51.510;11.934;2022-11-15T12:12:55;100009.13;;;12.06;89.64
18533;BME280;9396;51.510;11.934;2022-11-15T12:15:27;99995.91;;;12.13;89.25
18533;BME280;9396;51.510;11.934;2022-11-15T12:17:57;99971.50;;;12.01;89.39
18533;BME280;9396;51.510;11.934;2022-11-15T12:20:26;99991.72;;;12.18;89.44
18533;BME280;9396;51.510;11.934;2022-11-15T12:22:58;99990.38;;;12.22;88.54
18533;BME280;9396;51.510;11.934;2022-11-15T12:25:30;99991.03;;;12.24;88.54
18533;BME280;9396;51.510;11.934;2022-11-15T12:28:01;99993.00;;;12.30;88.49
18533;BME280;9396;51.510;11.934;2022-11-15T12:30:41;99992.00;;;12.31;88.30
18533;BME280;9396;51.510;11.934;2022-11-15T12:33:31;99979.19;;;12.27;87.72
18533;BME280;9396;51.510;11.934;2022-11-15T12:36:01;99983.34;;;12.29;87.78
18533;BME280;9396;51.510;11.934;2022-11-15T12:38:52;99979.00;;;12.28;87.66
18533;BME280;9396;51.510;11.934;2022-11-15T12:41:19;99974.00;;;12.33;87.95
18533;BME280;9396;51.510;11.934;2022-11-15T12:43:47;99968.31;;;12.36;87.85
18533;BME280;9396;51.510;11.934;2022-11-15T12:49:09;99966.59;;;12.43;87.24
18533;BME280;9396;51.510;11.934;2022-11-15T12:52:04;99957.22;;;12.47;87.42
18533;BME280;9396;51.510;11.934;2022-11-15T12:54:56;99963.22;;;12.49;87.88
18533;BME280;9396;51.510;11.934;2022-11-15T12:57:30;99951.16;;;12.53;87.39
18533;BME280;9396;51.510;11.934;2022-11-15T12:59:59;99958.00;;;12.56;86.85
18533;BME280;9396;51.510;11.934;2022-11-15T13:02:29;99957.53;;;12.52;86.25
18533;BME280;9396;51.510;11.934;2022-11-15T13:05:51;99948.03;;;12.50;86.80
18533;BME280;9396;51.510;11.934;2022-11-15T13:08:38;99931.91;;;12.43;86.24
18533;BME280;9396;51.510;11.934;2022-11-15T13:11:44;99953.78;;;12.61;85.70
18533;BME280;9396;51.510;11.934;2022-11-15T13:17:33;99952.72;;;12.70;85.28
18533;BME280;9396;51.510;11.934;2022-11-15T13:22:49;99944.53;;;12.72;84.97